ADDS METAR Data INFO
IDs: Format: Raw Decoded Include TAF

Data at: 1715 UTC 23 Oct 2017

PAFS 231701Z AUTO 04009KT 10SM CLR M10/M12 A2976 RMK AO2 SLP099 T11001122 FZRANO
PAFS 231601Z AUTO 05007KT 10SM CLR M11/M13 A2977 RMK AO2 SLP102 T11061128 FZRANO
PAFS 231501Z AUTO 06009KT 10SM CLR M11/M13 A2979 RMK AO2 SLP107 T11061128 51006 FZRANO
PAFS 231401Z AUTO 06005KT 10SM CLR M11/M13 A2979 RMK AO2 SLP110 T11111128 FZRANO
PAFS 231301Z AUTO 04004KT 10SM BKN065 M11/M12 A2979 RMK AO2 SLP109 T11061122 FZRANO
PAFS 231201Z AUTO 03003KT 10SM OVC070 M11/M12 A2978 RMK AO2 SLP106 T11061122 11106 21128 51020 FZRANO
PAFS 231101Z AUTO 05005KT 10SM OVC065 M12/M13 A2977 RMK AO2 SLP102 T11171133 FZRANO
PAFS 231001Z AUTO 03004KT 10SM BKN070 OVC085 M11/M12 A2975 RMK AO2 SLP096 T11111122 FZRANO
PAFS 230901Z AUTO 00000KT 10SM FEW060 OVC070 M11/M13 A2974 RMK AO2 SLP093 T11111128 53017 FZRANO
PAFS 230801Z AUTO 05006KT 10SM SCT095 M12/M14 A2971 RMK AO2 SLP082 T11221139 411221122 FZRANO
PAFS 230701Z AUTO 04007KT 10SM FEW110 M12/M13 A2969 RMK AO2 SLP075 T11171133 FZRANO
PAFS 230601Z AUTO 03006KT 10SM CLR M12/M14 A2968 RMK AO2 SLP071 T11221139 11067 21128 51015 FZRANO
PAFS 230501Z AUTO 04005KT 10SM CLR M12/M14 A2966 RMK AO2 SLP066 T11221139 FZRANO
PAFS 230401Z AUTO 04005KT 10SM CLR M13/M14 A2965 RMK AO2 SLP062 T11281144 FZRANO
PAFS 230201Z AUTO 00000KT 10SM CLR M07/M11 A2962 RMK AO2 SLP051 T10721111 FZRANO
PAFS 230101Z AUTO 05004KT 10SM FEW075 M07/M10 A2961 RMK AO2 SLP047 T10671100 FZRANO
PAFS 230001Z AUTO 06003KT 10SM FEW060 BKN075 OVC090 M09/M11 A2959 RMK AO2 SLP043 T10941111 11094 21183 51019 FZRANO
PAFS 222301Z AUTO 00000KT 10SM BKN095 M10/M12 A2958 RMK AO2 SLP039 T11001117 FZRANO
PAFS 222201Z AUTO 00000KT 10SM OVC090 M11/M12 A2957 RMK AO2 SLP033 T11061122 FZRANO
PAFS 222101Z AUTO 00000KT 10SM SCT080 BKN110 M12/M14 A2955 RMK AO2 SLP028 60000 T11221139 53022 FZRANO
PAFS 222001Z AUTO 00000KT 10SM BKN110 M15/M17 A2953 RMK AO2 SLP019 T11501167 FZRANO
PAFS 221901Z AUTO 00000KT 10SM CLR M17/M19 A2950 RMK AO2 SLP010 T11671189 FZRANO
PAFS 221801Z AUTO 00000KT 10SM CLR M18/M21 A2947 RMK AO2 SNE1720 SLP002 P0000 60000 T11831206 11167 21189 51018 FZRANO
PAFS 221701Z AUTO 00000KT 10SM -SN SCT012 M18/M20 A2946 RMK AO2 SNB1627E1640B1657 SLP998 P0000 T11831200 FZRANO
PAFS 221645Z AUTO 00000KT 9SM FEW013 M18/M20 A2946 RMK AO2 SNB27E40 P0000 FZRANO
PAFS 221616Z AUTO 00000KT 10SM BKN013 M18/M19 A2945 RMK AO2 FZRANO
PAFS 221601Z AUTO 00000KT 10SM SCT013 M18/M21 A2945 RMK AO2 SLP992 T11831206 FZRANO
PAFS 221501Z AUTO 00000KT 10SM CLR M17/M19 A2943 RMK AO2 SLP986 T11721194 52009 FZRANO
PAFS 221401Z AUTO 06003KT 10SM CLR M17/M19 A2941 RMK AO2 SLP979 T11721194 FZRANO
PAFS 221301Z AUTO 34005KT 10SM CLR M17/M19 A2940 RMK AO2 SLP976 T11721189 FZRANO
PAFS 221201Z AUTO 00000KT 10SM CLR M18/M21 A2939 RMK AO2 SLP972 T11831206 11156 21183 53005 FZRANO
PAFS 221101Z AUTO 03003KT 10SM CLR M18/M20 A2938 RMK AO2 SLP969 T11781200 FZRANO
PAFS 221001Z AUTO 00000KT 10SM CLR M18/M19 A2938 RMK AO2 SLP968 T11781194 FZRANO
PAFS 220901Z AUTO 00000KT 10SM CLR M17/M18 A2937 RMK AO2 SLP965 T11671183 51007 FZRANO
PAFS 220801Z AUTO 01003KT 8SM CLR M16/M18 A2937 RMK AO2 SLP965 T11611178 411611161 FZRANO
PAFS 220701Z AUTO 00000KT 10SM CLR M17/M18 A2936 RMK AO2 SLP963 T11671183 FZRANO
PAFS 220601Z AUTO 03003KT 10SM CLR M16/M19 A2935 RMK AO2 SLP961 T11611189 11067 21161 58001 FZRANO